Terminal Aerodrome Forecast
Issued by NWS Des Moines, IA

Home | Current Version | Previous Version | Text Only | Print | Product List | Glossary On
Versions: 1 2 3 4 5 6 7 8 9 10 11 12 13 14 15 16 17 18 19 20 21 22 23 24 25 26 27 28 29 30 31 32 33 34 35 36 37 38 39 40 41 42 43 44
000
FTUS43 KDMX 280520
TAFDSM
TAF
KDSM 280520Z 2806/2906 13010KT P6SM SCT020 BKN200
     FM280700 15010KT P6SM SCT025 BKN100
     FM281400 16013KT 6SM BR VCTS SCT015 BKN090CB
     FM281700 16012KT P6SM VCSH SCT020 BKN050
     FM282100 18011G18KT 6SM BR VCTS SCT035CB BKN080
     FM290200 29007KT P6SM VCSH BKN080=

USA.gov is the U.S. government's official web portal to all federal, state and local government web resources and services.